createdAt,value
2023-02-08T00:01:27.320Z,102182.78
2023-02-08T00:03:55.792Z,102184.56
2023-02-08T00:06:24.161Z,102180.28
2023-02-08T00:08:52.537Z,102180.44
2023-02-08T00:11:22.307Z,102176.94
2023-02-08T00:13:50.682Z,102180.53
2023-02-08T00:16:19.509Z,102172.81
2023-02-08T00:18:47.949Z,102169.50
2023-02-08T00:21:18.923Z,102170.31
2023-02-08T00:23:47.861Z,102170.31
2023-02-08T00:26:17.069Z,102170.53
2023-02-08T00:28:47.249Z,102178.38
2023-02-08T00:31:18.960Z,102174.25
2023-02-08T00:33:48.093Z,102178.66
2023-02-08T00:36:16.656Z,102179.47
2023-02-08T00:38:44.963Z,102170.91
2023-02-08T00:41:13.729Z,102171.03
2023-02-08T00:43:42.142Z,102173.66
2023-02-08T00:46:12.515Z,102167.72
2023-02-08T00:48:40.895Z,102170.44
2023-02-08T00:51:13.082Z,102161.88
2023-02-08T00:53:44.221Z,102169.03
2023-02-08T00:56:14.669Z,102167.25
2023-02-08T00:58:43.419Z,102152.63
2023-02-08T01:01:14.152Z,102148.38
2023-02-08T01:03:44.319Z,102169.25
2023-02-08T01:06:17.644Z,102170.19
2023-02-08T01:08:46.796Z,102185.16
2023-02-08T01:11:21.760Z,102176.59
2023-02-08T01:13:50.678Z,102169.72
2023-02-08T01:16:23.372Z,102181.00
2023-02-08T01:18:54.880Z,102175.91
2023-02-08T01:21:26.181Z,102177.78
2023-02-08T01:23:55.445Z,102175.31
2023-02-08T01:26:25.870Z,102170.31
2023-02-08T01:30:02.862Z,102166.97
2023-02-08T01:32:32.584Z,102166.50
2023-02-08T01:35:03.638Z,102164.88
2023-02-08T01:37:32.039Z,102165.78
2023-02-08T01:40:00.367Z,102161.53
2023-02-08T01:42:28.887Z,102158.81
2023-02-08T01:45:29.920Z,102150.50
2023-02-08T01:48:11.211Z,102160.09
2023-02-08T01:50:48.029Z,102154.06
2023-02-08T01:53:17.363Z,102148.94
2023-02-08T01:55:50.891Z,102156.75
2023-02-08T01:58:20.413Z,102153.47
2023-02-08T02:00:49.933Z,102152.63
2023-02-08T02:03:20.393Z,102152.72
2023-02-08T02:05:53.034Z,102147.50
2023-02-08T02:08:21.578Z,102148.47
2023-02-08T02:10:50.794Z,102145.03
2023-02-08T02:13:22.909Z,102151.22
2023-02-08T02:15:52.251Z,102141.81
2023-02-08T02:18:26.758Z,102140.19
2023-02-08T02:21:31.605Z,102136.84
2023-02-08T02:24:43.175Z,102136.25
2023-02-08T02:27:40.370Z,102141.59
2023-02-08T02:31:05.048Z,102132.34
2023-02-08T02:33:56.491Z,102129.81
2023-02-08T02:36:34.729Z,102127.22
2023-02-08T02:39:19.191Z,102130.78
2023-02-08T02:42:16.039Z,102134.44
2023-02-08T02:44:54.211Z,102132.78
2023-02-08T02:47:35.572Z,102132.78
2023-02-08T02:50:12.953Z,102128.63
2023-02-08T02:52:48.608Z,102120.09
2023-02-08T02:55:20.529Z,102124.47
2023-02-08T02:57:52.320Z,102119.25
2023-02-08T03:00:25.352Z,102116.75
2023-02-08T03:02:55.618Z,102124.72
2023-02-08T03:05:26.119Z,102120.44
2023-02-08T03:08:16.890Z,102113.56
2023-02-08T03:11:12.943Z,102106.91
2023-02-08T03:13:59.012Z,102108.78
2023-02-08T03:16:34.341Z,102114.00
2023-02-08T03:19:09.599Z,102105.50
2023-02-08T03:21:45.439Z,102102.88
2023-02-08T03:24:28.287Z,102103.94
2023-02-08T03:27:04.625Z,102106.66
2023-02-08T03:29:45.516Z,102107.59
2023-02-08T03:32:22.870Z,102107.72
2023-02-08T03:34:57.387Z,102105.13
2023-02-08T03:37:31.977Z,102104.28
2023-02-08T03:40:05.942Z,102095.88
2023-02-08T03:42:37.038Z,102112.34
2023-02-08T03:45:13.883Z,102109.00
2023-02-08T03:47:47.180Z,102122.03
2023-02-08T03:50:19.079Z,102119.41
2023-02-08T03:52:50.542Z,102115.16
2023-02-08T03:55:23.247Z,102121.44
2023-02-08T03:57:57.071Z,102114.56
2023-02-08T04:00:26.498Z,102108.53
2023-02-08T04:03:01.112Z,102119.78
2023-02-08T04:05:30.788Z,102113.00
2023-02-08T04:08:00.494Z,102107.09
2023-02-08T04:10:29.315Z,102116.56
2023-02-08T04:12:57.633Z,102112.31
2023-02-08T04:15:27.397Z,102108.88
2023-02-08T04:17:55.916Z,102109.78
2023-02-08T04:20:24.244Z,102106.38
2023-02-08T04:22:52.595Z,102101.28
2023-02-08T04:25:23.083Z,102104.84
2023-02-08T04:27:51.462Z,102102.22
2023-02-08T04:30:20.229Z,102093.06
2023-02-08T04:32:48.588Z,102100.69
2023-02-08T04:35:17.006Z,102103.50
2023-02-08T04:37:45.345Z,102104.31
2023-02-08T04:40:13.913Z,102101.84
2023-02-08T04:42:43.611Z,102108.00
2023-02-08T04:45:12.050Z,102070.66
2023-02-08T04:47:40.391Z,102107.28
2023-02-08T04:50:09.130Z,102104.69
2023-02-08T04:52:37.449Z,102098.72
2023-02-08T04:55:06.580Z,102103.94
2023-02-08T04:57:34.991Z,102106.69
2023-02-08T05:00:06.572Z,102098.13
2023-02-08T05:02:34.977Z,102101.69
2023-02-08T05:05:03.303Z,102107.72
2023-02-08T05:07:31.732Z,102100.84
2023-02-08T05:10:00.075Z,102109.63
2023-02-08T05:12:28.559Z,102094.22
2023-02-08T05:14:57.044Z,102094.22
2023-02-08T05:17:26.803Z,102102.03
2023-02-08T05:19:55.116Z,102098.69
2023-02-08T05:22:23.480Z,102103.91
2023-02-08T05:24:51.779Z,102108.41
2023-02-08T05:27:20.152Z,102101.53
2023-02-08T05:29:48.442Z,102097.16
2023-02-08T05:32:17.891Z,102102.47
2023-02-08T05:34:47.865Z,102100.69
2023-02-08T05:37:16.299Z,102096.56
2023-02-08T05:39:44.693Z,102099.16
2023-02-08T05:42:13.050Z,102093.22
2023-02-08T05:44:41.380Z,102101.03
2023-02-08T05:47:09.743Z,102102.00
2023-02-08T05:49:38.079Z,102094.28
2023-02-08T05:52:07.916Z,102104.81
2023-02-08T05:54:36.300Z,102107.53
2023-02-08T05:57:04.663Z,102100.56
2023-02-08T05:59:32.955Z,102106.69
2023-02-08T06:02:01.289Z,102100.66
2023-02-08T06:04:29.820Z,102103.38
2023-02-08T06:06:58.154Z,102106.94
2023-02-08T06:09:27.947Z,102116.50
2023-02-08T06:11:56.302Z,102112.25
2023-02-08T06:14:25.114Z,102107.38
2023-02-08T06:16:53.428Z,102113.28
2023-02-08T06:19:22.389Z,102118.50
2023-02-08T06:21:50.780Z,102119.44
2023-02-08T06:24:19.124Z,102117.78
2023-02-08T06:26:48.866Z,102119.66
2023-02-08T06:29:17.245Z,102127.47
2023-02-08T06:31:45.683Z,102122.38
2023-02-08T06:34:14.164Z,102128.56
2023-02-08T06:36:42.538Z,102124.25
2023-02-08T06:39:10.868Z,102118.13
2023-02-08T06:41:39.247Z,102132.19
2023-02-08T06:44:09.048Z,102121.78
2023-02-08T06:46:37.385Z,102134.81
2023-02-08T06:49:05.750Z,102134.06
2023-02-08T06:51:34.025Z,102130.63
2023-02-08T06:54:02.398Z,102137.63
2023-02-08T06:56:30.933Z,102156.81
2023-02-08T06:58:59.424Z,102129.94
2023-02-08T07:01:29.171Z,102121.25
2023-02-08T07:03:57.569Z,102135.22
2023-02-08T07:06:25.934Z,102134.41
2023-02-08T07:08:54.336Z,102128.47
2023-02-08T07:11:23.278Z,102140.56
2023-02-08T07:13:55.168Z,102136.41
2023-02-08T07:16:23.946Z,102136.41
2023-02-08T07:18:54.197Z,102139.00
2023-02-08T07:21:22.708Z,102132.97
2023-02-08T07:23:51.456Z,102125.25
2023-02-08T07:26:19.789Z,102114.81
2023-02-08T07:28:48.359Z,102122.06
2023-02-08T07:31:18.830Z,102119.22
2023-02-08T07:33:47.181Z,102127.16
2023-02-08T07:36:16.890Z,102118.38
2023-02-08T07:38:45.214Z,102111.53
2023-02-08T07:41:15.584Z,102115.91
2023-02-08T07:43:58.671Z,102116.72
2023-02-08T07:46:29.420Z,102112.34
2023-02-08T07:48:57.725Z,102106.31
2023-02-08T07:51:27.432Z,102112.47
2023-02-08T07:53:55.722Z,102108.91
2023-02-08T07:56:24.084Z,102116.59
2023-02-08T07:58:52.490Z,102113.28
2023-02-08T08:01:22.723Z,102114.25
2023-02-08T08:03:52.260Z,102120.28
2023-02-08T08:06:22.036Z,102108.31
2023-02-08T08:08:52.400Z,102115.16
2023-02-08T08:11:21.977Z,102108.19
2023-02-08T08:13:50.552Z,102109.88
2023-02-08T08:16:19.624Z,102104.66
2023-02-08T08:18:48.282Z,102108.19
2023-02-08T08:21:16.871Z,102106.31
2023-02-08T08:23:45.502Z,102114.00
2023-02-08T08:26:19.755Z,102110.47
2023-02-08T08:28:49.125Z,102120.03
2023-02-08T08:31:20.170Z,102125.84
2023-02-08T08:33:49.401Z,102106.09
2023-02-08T08:36:17.770Z,102110.22
2023-02-08T08:38:46.151Z,102117.13
2023-02-08T08:41:18.756Z,102103.97
2023-02-08T08:43:47.061Z,102111.69
2023-02-08T08:46:16.820Z,102113.22
2023-02-08T08:48:45.546Z,102109.72
2023-02-08T08:51:15.099Z,102108.63
2023-02-08T08:53:43.572Z,102099.78
2023-02-08T08:56:11.923Z,102102.16
2023-02-08T08:58:43.429Z,102089.84
2023-02-08T09:01:13.413Z,102091.41
2023-02-08T09:03:41.774Z,102085.97
2023-02-08T09:06:10.133Z,102084.09
2023-02-08T09:08:38.482Z,102089.88
2023-02-08T09:11:08.534Z,102084.59
2023-02-08T09:13:37.249Z,102095.59
2023-02-08T09:16:14.300Z,102091.97
2023-02-08T09:18:43.098Z,102093.47
2023-02-08T09:21:15.344Z,102085.44
2023-02-08T09:23:44.163Z,102088.66
2023-02-08T09:26:14.410Z,102088.56
2023-02-08T09:28:43.084Z,102089.88
2023-02-08T09:31:14.929Z,102092.38
2023-02-08T09:33:43.320Z,102093.69
2023-02-08T09:36:12.012Z,102090.03
2023-02-08T09:38:41.033Z,102093.31
2023-02-08T09:41:27.433Z,102090.50
2023-02-08T09:44:11.852Z,102081.63
2023-02-08T09:46:46.723Z,102077.84
2023-02-08T09:49:21.639Z,102073.34
2023-02-08T09:51:55.429Z,102076.44
2023-02-08T09:54:30.034Z,102078.69
2023-02-08T09:57:01.484Z,102069.69
2023-02-08T09:59:33.664Z,102065.06
2023-02-08T10:02:16.202Z,102062.94
2023-02-08T10:04:59.748Z,102054.16
2023-02-08T10:07:29.737Z,102068.19
2023-02-08T10:10:01.836Z,102061.78
2023-02-08T10:12:39.955Z,102066.63
2023-02-08T10:15:20.273Z,102054.91
2023-02-08T10:18:24.437Z,102044.91
2023-02-08T10:21:16.323Z,102041.94
2023-02-08T10:24:17.289Z,102053.56
2023-02-08T10:26:49.510Z,102049.53
2023-02-08T10:30:04.833Z,102040.25
2023-02-08T10:32:46.467Z,102039.66
2023-02-08T10:35:26.491Z,102040.72
2023-02-08T10:37:57.661Z,102040.84
2023-02-08T10:40:35.723Z,102031.56
2023-02-08T10:43:22.843Z,102028.41
2023-02-08T10:45:56.027Z,102031.97
2023-02-08T10:48:39.963Z,102014.97
2023-02-08T10:51:13.641Z,102021.06
2023-02-08T10:53:42.106Z,102021.97
2023-02-08T10:56:29.583Z,102018.72
2023-02-08T10:59:00.010Z,102015.47
2023-02-08T11:01:29.810Z,102005.34
2023-02-08T11:04:07.485Z,102002.84
2023-02-08T11:06:37.846Z,102003.16
2023-02-08T11:09:06.975Z,102000.59
2023-02-08T11:11:37.001Z,102001.59
2023-02-08T11:14:11.588Z,101994.91
2023-02-08T11:16:41.513Z,101986.38
2023-02-08T11:19:24.478Z,101987.53
2023-02-08T11:22:07.415Z,101971.00
2023-02-08T11:24:41.505Z,101983.59
2023-02-08T11:27:19.786Z,101980.69
2023-02-08T11:29:48.165Z,101984.44
2023-02-08T11:32:19.258Z,101980.59
2023-02-08T11:34:48.882Z,101964.38
2023-02-08T11:37:25.802Z,101962.03
2023-02-08T11:39:56.974Z,101958.75
2023-02-08T11:42:30.054Z,101955.56
2023-02-08T11:45:00.317Z,101952.13
2023-02-08T11:47:31.795Z,101948.28
2023-02-08T11:50:02.837Z,101952.84
2023-02-08T11:52:36.669Z,101945.25
2023-02-08T11:55:25.165Z,101946.63
2023-02-08T11:57:55.819Z,101942.66
2023-02-08T12:00:27.742Z,101943.75
2023-02-08T12:03:01.151Z,101941.38
2023-02-08T12:05:41.465Z,101944.53
2023-02-08T12:08:21.193Z,101944.16
2023-02-08T12:11:10.746Z,101934.22
2023-02-08T12:14:04.478Z,101934.59
2023-02-08T12:17:03.657Z,101935.69
2023-02-08T12:19:58.476Z,101930.19
2023-02-08T12:22:28.675Z,101920.91
2023-02-08T12:25:21.367Z,101931.13
2023-02-08T12:28:00.908Z,101917.72
2023-02-08T12:30:34.512Z,101905.97
2023-02-08T12:33:36.903Z,101901.44
2023-02-08T12:36:41.138Z,101898.66
2023-02-08T12:39:50.611Z,101901.81
2023-02-08T12:42:38.002Z,101891.19
2023-02-08T12:45:35.712Z,101895.31
2023-02-08T12:48:20.232Z,101890.47
2023-02-08T12:50:55.432Z,101891.84
2023-02-08T12:53:31.011Z,101886.31
2023-02-08T12:56:03.958Z,101877.28
2023-02-08T12:58:39.830Z,101878.81
2023-02-08T13:01:14.035Z,101874.25
2023-02-08T13:03:49.292Z,101860.00
2023-02-08T13:06:21.676Z,101852.28
2023-02-08T13:08:55.383Z,101856.25
2023-02-08T13:11:32.863Z,101852.66
2023-02-08T13:14:07.980Z,101850.56
2023-02-08T13:16:43.855Z,101844.22
2023-02-08T13:19:31.008Z,101847.56
2023-02-08T13:22:01.158Z,101836.75
2023-02-08T13:24:36.552Z,101838.25
2023-02-08T13:27:07.451Z,101834.53
2023-02-08T13:29:38.499Z,101832.56
2023-02-08T13:32:11.357Z,101837.53
2023-02-08T13:34:44.751Z,101839.16
2023-02-08T13:37:25.751Z,101842.47
2023-02-08T13:40:04.502Z,101825.63
2023-02-08T13:42:39.702Z,101823.50
2023-02-08T13:45:12.316Z,101815.34
2023-02-08T13:47:46.948Z,101808.81
2023-02-08T13:50:47.066Z,101811.16
2023-02-08T13:53:17.376Z,101810.81
2023-02-08T13:56:09.203Z,101803.94
2023-02-08T13:58:55.046Z,101806.44
2023-02-08T14:01:27.739Z,101808.88
2023-02-08T14:04:36.358Z,101806.25
2023-02-08T14:07:38.985Z,101798.09
2023-02-08T14:10:31.885Z,101795.81
2023-02-08T14:13:07.007Z,101789.47
2023-02-08T14:15:39.352Z,101803.09
2023-02-08T14:18:27.047Z,101789.97
2023-02-08T14:21:06.477Z,101791.31
2023-02-08T14:23:40.610Z,101794.78
2023-02-08T14:26:20.797Z,101784.13
2023-02-08T14:28:56.761Z,101778.72
2023-02-08T14:31:40.660Z,101774.16
2023-02-08T14:34:28.061Z,101789.22
2023-02-08T14:37:08.026Z,101765.41
2023-02-08T14:39:37.440Z,101775.63
2023-02-08T14:42:08.834Z,101775.47
2023-02-08T14:45:06.897Z,101769.41
2023-02-08T14:48:19.860Z,101765.94
2023-02-08T14:51:03.969Z,101761.53
2023-02-08T14:53:44.881Z,101760.53
2023-02-08T14:56:20.901Z,101754.31
2023-02-08T14:58:52.895Z,101752.38
2023-02-08T15:01:26.599Z,101753.19
2023-02-08T15:04:01.284Z,101742.50
2023-02-08T15:07:07.041Z,101741.03
2023-02-08T15:09:40.556Z,101737.56
2023-02-08T15:12:18.358Z,101733.44
2023-02-08T15:14:47.293Z,101730.00
2023-02-08T15:17:30.134Z,101740.00
2023-02-08T15:19:59.196Z,101736.50
2023-02-08T15:22:39.845Z,101743.56
2023-02-08T15:25:27.469Z,101736.84
2023-02-08T15:27:58.772Z,101736.97
2023-02-08T15:30:38.437Z,101729.28
2023-02-08T15:33:14.487Z,101737.16
2023-02-08T15:35:45.058Z,101733.84
2023-02-08T15:38:19.772Z,101740.91
2023-02-08T15:41:05.399Z,101744.81
2023-02-08T15:43:35.270Z,101743.16
2023-02-08T15:46:06.929Z,101741.50
2023-02-08T15:48:37.076Z,101741.66
2023-02-08T15:51:08.198Z,101752.31
2023-02-08T15:53:38.577Z,101750.94
2023-02-08T15:56:07.998Z,101752.25
2023-02-08T15:58:40.815Z,101751.41
2023-02-08T16:01:18.075Z,101748.44
2023-02-08T16:03:48.902Z,101752.47
2023-02-08T16:06:25.150Z,101755.25
2023-02-08T16:08:58.868Z,101756.38
2023-02-08T16:11:30.082Z,101755.84
2023-02-08T16:14:01.190Z,101759.59
2023-02-08T16:16:41.875Z,101753.97
2023-02-08T16:19:25.068Z,101757.72
2023-02-08T16:21:55.261Z,101754.56
2023-02-08T16:24:29.417Z,101764.25
2023-02-08T16:27:03.110Z,101762.72
2023-02-08T16:29:34.451Z,101766.34
2023-02-08T16:32:12.956Z,101773.66
2023-02-08T16:34:42.165Z,101775.75
2023-02-08T16:37:28.456Z,101776.31
2023-02-08T16:40:00.020Z,101772.50
2023-02-08T16:42:33.787Z,101781.34
2023-02-08T16:45:19.027Z,101779.03
2023-02-08T16:47:52.015Z,101780.97
2023-02-08T16:50:23.686Z,101773.38
2023-02-08T16:52:55.956Z,101773.69
2023-02-08T16:55:28.599Z,101773.00
2023-02-08T16:57:59.080Z,101777.56
2023-02-08T17:00:30.252Z,101777.72
2023-02-08T17:02:59.056Z,101789.19
2023-02-08T17:05:30.543Z,101781.44
2023-02-08T17:08:00.056Z,101774.72
2023-02-08T17:10:32.284Z,101771.41
2023-02-08T17:13:18.656Z,101775.13
2023-02-08T17:15:50.584Z,101768.41
2023-02-08T17:18:19.255Z,101768.69
2023-02-08T17:20:47.795Z,101788.16
2023-02-08T17:23:17.659Z,101777.81
2023-02-08T17:25:47.623Z,101774.66
2023-02-08T17:28:20.315Z,101787.06
2023-02-08T17:30:50.092Z,101789.03
2023-02-08T17:33:21.378Z,101788.34
2023-02-08T17:35:52.752Z,101797.47
2023-02-08T17:38:22.474Z,101789.06
2023-02-08T17:40:52.282Z,101796.09
2023-02-08T17:43:20.768Z,101795.41
2023-02-08T17:45:49.084Z,101784.38
2023-02-08T17:48:17.866Z,101793.22
2023-02-08T17:50:51.019Z,101787.59
2023-02-08T17:53:20.809Z,101795.72
2023-02-08T17:55:49.291Z,101788.97
2023-02-08T17:58:19.295Z,101788.44
2023-02-08T18:00:47.807Z,101792.16
2023-02-08T18:03:17.260Z,101786.38
2023-02-08T18:05:45.739Z,101779.91
2023-02-08T18:08:14.685Z,101790.25
2023-02-08T18:10:43.501Z,101785.28
2023-02-08T18:13:12.152Z,101800.47
2023-02-08T18:15:42.422Z,101796.34
2023-02-08T18:18:11.292Z,101795.81
2023-02-08T18:20:44.856Z,101797.72
2023-02-08T18:23:13.406Z,101793.59
2023-02-08T18:25:42.716Z,101799.25
2023-02-08T18:28:14.725Z,101811.69
2023-02-08T18:30:44.510Z,101806.56
2023-02-08T18:33:13.744Z,101804.22
2023-02-08T18:35:42.714Z,101800.09
2023-02-08T18:38:11.175Z,101798.59
2023-02-08T18:40:41.544Z,101797.22
2023-02-08T18:43:09.847Z,101795.69
2023-02-08T18:45:38.175Z,101794.16
2023-02-08T18:48:08.016Z,101789.22
2023-02-08T18:50:36.368Z,101786.88
2023-02-08T18:53:04.797Z,101795.00
2023-02-08T18:55:33.594Z,101788.13
2023-02-08T18:58:01.949Z,101786.59
2023-02-08T19:00:30.319Z,101781.66
2023-02-08T19:02:58.668Z,101786.19
2023-02-08T19:05:28.346Z,101778.47
2023-02-08T19:07:56.696Z,101784.81
2023-02-08T19:10:25.026Z,101785.06
2023-02-08T19:12:53.400Z,101789.63
2023-02-08T19:15:21.830Z,101796.94
2023-02-08T19:17:50.257Z,101814.56
2023-02-08T19:20:19.007Z,101796.53
2023-02-08T19:22:48.722Z,101799.16
2023-02-08T19:25:17.375Z,101796.81
2023-02-08T19:27:45.803Z,101795.28
2023-02-08T19:30:15.880Z,101807.53
2023-02-08T19:32:44.367Z,101802.56
2023-02-08T19:35:13.254Z,101805.19
2023-02-08T19:37:42.902Z,101798.44
2023-02-08T19:40:14.204Z,101809.16
2023-02-08T19:42:43.818Z,101799.66
2023-02-08T19:45:12.720Z,101807.66
2023-02-08T19:47:50.977Z,101809.56
2023-02-08T19:50:20.374Z,101817.56
2023-02-08T19:52:48.747Z,101811.78
2023-02-08T19:55:18.654Z,101806.00
2023-02-08T19:57:46.963Z,101804.31
2023-02-08T20:00:23.429Z,101794.16
2023-02-08T20:02:52.845Z,101794.41
2023-02-08T20:05:21.292Z,101795.38
2023-02-08T20:07:49.742Z,101818.34
2023-02-08T20:10:19.559Z,101796.59
2023-02-08T20:12:47.968Z,101801.25
2023-02-08T20:15:16.447Z,101795.91
2023-02-08T20:17:45.733Z,101789.28
2023-02-08T20:20:14.144Z,101795.47
2023-02-08T20:22:42.569Z,101793.00
2023-02-08T20:25:10.960Z,101784.59
2023-02-08T20:27:40.804Z,101791.63
2023-02-08T20:30:11.908Z,101792.59
2023-02-08T20:32:41.053Z,101792.84
2023-02-08T20:35:09.822Z,101848.00
2023-02-08T20:37:38.366Z,101793.34
2023-02-08T20:40:08.049Z,101798.72
2023-02-08T20:42:36.482Z,101793.75
2023-02-08T20:45:08.851Z,101799.09
2023-02-08T20:47:46.043Z,101828.97
2023-02-08T20:50:19.284Z,101792.47
2023-02-08T20:52:49.078Z,101803.06
2023-02-08T20:55:17.736Z,101835.41
2023-02-08T20:57:46.112Z,101791.09
2023-02-08T21:00:17.045Z,101785.44
2023-02-08T21:02:45.465Z,101795.34
2023-02-08T21:05:13.900Z,101773.03
2023-02-08T21:07:42.552Z,101783.50
2023-02-08T21:10:11.268Z,101790.75
2023-02-08T21:12:39.681Z,101778.53
2023-02-08T21:15:09.748Z,101784.97
2023-02-08T21:17:41.105Z,101779.84
2023-02-08T21:20:12.044Z,101790.44
2023-02-08T21:22:40.635Z,101772.41
2023-02-08T21:25:10.313Z,101767.91
2023-02-08T21:27:38.820Z,101798.53
2023-02-08T21:30:10.649Z,101762.22
2023-02-08T21:32:41.792Z,101765.09
2023-02-08T21:35:10.483Z,101793.84
2023-02-08T21:37:38.904Z,101766.22
2023-02-08T21:40:08.097Z,101744.34
2023-02-08T21:42:36.545Z,101750.53
2023-02-08T21:45:05.816Z,101748.84
2023-02-08T21:47:34.300Z,101717.78
2023-02-08T21:50:21.881Z,101745.69
2023-02-08T21:53:10.143Z,101742.38
2023-02-08T21:55:38.529Z,101718.16
2023-02-08T21:58:06.933Z,101723.53
2023-02-08T22:00:35.434Z,101722.72
2023-02-08T22:03:03.826Z,101715.81
2023-02-08T22:05:51.359Z,101712.38
2023-02-08T22:08:19.760Z,101720.47
2023-02-08T22:10:57.802Z,101725.84
2023-02-08T22:13:27.134Z,101715.53
2023-02-08T22:15:55.575Z,101713.75
2023-02-08T22:18:24.015Z,101718.16
2023-02-08T22:20:54.755Z,101717.28
2023-02-08T22:23:23.163Z,101710.44
2023-02-08T22:25:51.555Z,101710.69
2023-02-08T22:28:19.997Z,101711.50
2023-02-08T22:30:49.400Z,101713.28
2023-02-08T22:33:18.009Z,101713.44
2023-02-08T22:35:46.394Z,101709.88
2023-02-08T22:38:16.169Z,101716.16
2023-02-08T22:40:44.905Z,101709.31
2023-02-08T22:43:13.401Z,101711.91
2023-02-08T22:45:42.369Z,101712.88
2023-02-08T22:48:11.330Z,101715.50
2023-02-08T22:50:40.108Z,101713.00
2023-02-08T22:53:08.444Z,101693.63
2023-02-08T22:55:38.202Z,101701.59
2023-02-08T22:58:06.639Z,101716.31
2023-02-08T23:00:35.050Z,101709.44
2023-02-08T23:03:03.494Z,101715.75
2023-02-08T23:05:31.782Z,101713.84
2023-02-08T23:08:00.161Z,101714.78
2023-02-08T23:10:28.519Z,101713.13
2023-02-08T23:13:06.229Z,101714.34
2023-02-08T23:15:34.917Z,101709.13
2023-02-08T23:18:03.510Z,101709.13
2023-02-08T23:20:31.905Z,101704.88
2023-02-08T23:23:00.316Z,101688.50
2023-02-08T23:25:29.250Z,101693.00
2023-02-08T23:27:59.464Z,101702.78
2023-02-08T23:30:27.918Z,101693.28
2023-02-08T23:32:56.574Z,101696.84
2023-02-08T23:35:25.014Z,101701.50
2023-02-08T23:37:53.420Z,101687.50
2023-02-08T23:40:21.959Z,101700.56
2023-02-08T23:42:50.383Z,101701.50
2023-02-08T23:45:20.513Z,101693.09
2023-02-08T23:47:49.126Z,101694.06
2023-02-08T23:50:17.656Z,101695.41
2023-02-08T23:52:46.084Z,101689.09
2023-02-08T23:55:14.530Z,101728.50
2023-02-08T23:57:43.072Z,101667.78
